Time;durP1;ratioP1;P1;durP2;ratioP2;P2;SDS_P1;SDS_P2;PMS_P1;PMS_P2;Temp;Humidity;BMP_temperature;BMP_pressure;BME280_temperature;BME280_humidity;BME280_pressure;Samples;Min_cycle;Max_cycle;Signal;HPM_P1;HPM_P2
2022/08/11 00:01:57;;;;;;;3.70;2.55;;;;;;;19.24;59.79;96455.03;5034455;28;20466;-69
2022/08/11 00:04:27;;;;;;;5.43;3.00;;;;;;;19.34;59.67;96460.47;5034218;28;20051;-71
2022/08/11 00:06:55;;;;;;;3.40;2.67;;;;;;;19.40;59.44;96456.53;5034015;28;20456;-68
2022/08/11 00:09:34;;;;;;;3.42;2.70;;;;;;;19.35;59.25;96451.56;5034169;28;20053;-63
2022/08/11 00:12:04;;;;;;;7.40;3.00;;;;;;;19.42;59.51;96452.78;5034246;28;20054;-72
2022/08/11 00:14:34;;;;;;;4.25;2.40;;;;;;;19.41;59.29;96464.34;5034153;28;20045;-73
2022/08/11 00:17:04;;;;;;;5.20;3.20;;;;;;;19.43;59.33;96458.94;5034263;28;20046;-68
2022/08/11 00:19:34;;;;;;;4.60;3.03;;;;;;;19.42;59.41;96457.25;5033987;28;20460;-70
2022/08/11 00:22:02;;;;;;;4.78;2.97;;;;;;;19.36;59.38;96468.31;5034110;28;20060;-67
2022/08/11 00:24:35;;;;;;;4.03;3.00;;;;;;;19.25;59.26;96464.66;5033913;28;20103;-66
2022/08/11 00:27:04;;;;;;;4.90;3.17;;;;;;;19.24;59.65;96459.47;5034005;28;20103;-67
2022/08/11 00:29:31;;;;;;;5.50;3.08;;;;;;;19.22;59.84;96464.03;5033904;28;20049;-69
2022/08/11 00:32:03;;;;;;;5.65;2.85;;;;;;;19.14;60.18;96462.81;5033920;28;20085;-64
2022/08/11 00:34:31;;;;;;;5.32;2.80;;;;;;;19.05;60.48;96460.81;5033913;28;20107;-63
2022/08/11 00:37:03;;;;;;;3.20;2.78;;;;;;;18.93;60.92;96458.09;5033648;28;20107;-70
2022/08/11 00:39:34;;;;;;;2.90;2.67;;;;;;;18.83;61.04;96459.75;5033582;28;20491;-64
2022/08/11 00:42:13;;;;;;;4.10;3.60;;;;;;;18.75;61.40;96460.28;5033759;28;20140;-67
2022/08/11 00:44:55;;;;;;;3.20;2.42;;;;;;;18.68;61.02;96461.69;5033591;28;20103;-69
2022/08/11 00:47:34;;;;;;;6.80;3.33;;;;;;;18.62;61.48;96463.00;5033523;28;20085;-67
2022/08/11 00:50:18;;;;;;;6.82;3.28;;;;;;;18.51;61.98;96463.75;5033445;28;20049;-66
2022/08/11 00:53:03;;;;;;;4.93;3.28;;;;;;;18.47;61.77;96470.22;5032720;28;20081;-66
2022/08/11 00:56:05;;;;;;;7.40;2.70;;;;;;;18.42;61.98;96465.25;5033477;28;20052;-66
2022/08/11 00:59:09;;;;;;;5.25;3.17;;;;;;;18.31;62.32;96466.00;5033395;28;20061;-67
2022/08/11 01:01:56;;;;;;;5.88;3.28;;;;;;;18.18;62.84;96462.53;5008067;28;20099;-70
2022/08/11 01:05:11;;;;;;;9.23;3.33;;;;;;;18.12;62.73;96471.75;5033218;28;20438;-68
2022/08/11 01:08:18;;;;;;;6.15;2.72;;;;;;;17.97;63.36;96463.06;5033093;28;20065;-68
2022/08/11 01:10:57;;;;;;;4.53;2.75;;;;;;;17.93;63.30;96465.09;5033137;28;20511;-69
2022/08/11 01:14:06;;;;;;;5.55;3.25;;;;;;;17.91;63.35;96455.56;5033187;28;20064;-67
2022/08/11 01:17:05;;;;;;;11.27;3.30;;;;;;;17.84;63.49;96460.41;4974283;28;20510;-71
2022/08/11 01:20:22;;;;;;;4.72;2.85;;;;;;;17.77;63.84;96451.22;4963627;28;20137;-71
2022/08/11 01:23:49;;;;;;;3.78;3.00;;;;;;;17.72;64.10;96443.59;5033058;28;20487;-69
2022/08/11 01:26:49;;;;;;;5.28;3.17;;;;;;;17.63;64.44;96449.50;5032996;28;20077;-62
2022/08/11 01:29:57;;;;;;;3.10;2.83;;;;;;;17.62;64.74;96440.75;5024508;28;20056;-63
2022/08/11 01:33:02;;;;;;;4.47;2.78;;;;;;;17.62;64.58;96439.88;5007689;28;20045;-65
2022/08/11 01:35:52;;;;;;;2.92;2.67;;;;;;;17.58;64.82;96449.81;5033213;28;20049;-66
2022/08/11 01:38:52;;;;;;;3.33;3.03;;;;;;;17.58;65.26;96447.16;5032835;28;20049;-63
2022/08/11 01:44:41;;;;;;;4.60;3.10;;;;;;;17.62;65.08;96443.38;4999805;28;20503;-67
2022/08/11 01:50:14;;;;;;;3.63;2.83;;;;;;;17.57;65.10;96448.13;5031859;28;20515;-67
2022/08/11 01:53:01;;;;;;;7.82;2.92;;;;;;;17.51;65.52;96443.25;5032722;28;20132;-65
2022/08/11 01:55:37;;;;;;;4.32;3.45;;;;;;;17.50;65.33;96449.50;5032888;28;20575;-72
2022/08/11 01:58:14;;;;;;;7.95;3.47;;;;;;;17.48;65.15;96449.59;5032733;28;20808;-67
2022/08/11 02:00:53;;;;;;;6.85;3.33;;;;;;;17.50;65.46;96438.94;5032665;28;20162;-69
2022/08/11 02:03:27;;;;;;;4.97;3.13;;;;;;;17.48;65.61;96441.69;5034566;28;20186;-64
2022/08/11 02:06:53;;;;;;;5.95;3.42;;;;;;;17.39;66.30;96450.22;5036345;28;20093;-67
2022/08/11 02:09:04;;;;;;;7.47;4.43;;;;;;;17.37;66.35;96442.38;5036392;28;20045;-68
2022/08/11 02:11:33;;;;;;;6.05;3.53;;;;;;;17.30;66.72;96441.97;5036436;28;20076;-69
2022/08/11 02:14:14;;;;;;;7.93;3.67;;;;;;;17.25;67.21;96448.53;5036320;28;20084;-67
2022/08/11 02:16:53;;;;;;;4.35;3.63;;;;;;;17.28;67.49;96451.78;5036417;28;20534;-65
2022/08/11 02:25:08;;;;;;;6.35;3.33;;;;;;;17.48;66.51;96461.97;5036403;28;20474;-66
2022/08/11 02:27:42;;;;;;;3.78;3.25;;;;;;;17.43;66.73;96460.50;5036093;28;20154;-66
2022/08/11 02:30:14;;;;;;;3.33;2.88;;;;;;;17.38;66.81;96456.47;5036050;28;20104;-65
2022/08/11 02:35:44;;;;;;;10.23;2.83;;;;;;;17.24;66.66;96449.44;5036057;28;20127;-66
2022/08/11 02:38:28;;;;;;;4.18;2.65;;;;;;;17.25;66.64;96452.00;5035909;28;20053;-67
2022/08/11 02:41:03;;;;;;;6.90;3.03;;;;;;;17.27;66.48;96439.53;5035808;28;20133;-66
2022/08/11 02:44:03;;;;;;;4.65;2.95;;;;;;;17.29;66.30;96434.16;5035735;28;20411;-65
2022/08/11 02:46:45;;;;;;;4.90;2.88;;;;;;;17.26;66.09;96435.19;5035724;28;20452;-64
2022/08/11 02:52:08;;;;;;;4.60;2.75;;;;;;;17.36;65.78;96440.72;5035863;28;20188;-66
2022/08/11 02:54:42;;;;;;;4.70;2.70;;;;;;;17.39;65.48;96439.66;5035506;28;20046;-69
2022/08/11 02:57:18;;;;;;;3.25;2.72;;;;;;;17.49;65.08;96443.34;5035507;28;20056;-67
2022/08/11 02:59:53;;;;;;;3.78;2.42;;;;;;;17.43;64.89;96441.97;5035511;28;20410;-69
2022/08/11 03:02:31;;;;;;;3.85;2.33;;;;;;;17.34;64.83;96442.59;5035638;28;20399;-64
2022/08/11 03:05:13;;;;;;;4.38;2.17;;;;;;;17.20;65.24;96438.25;5035580;28;20049;-63
2022/08/11 03:07:51;;;;;;;5.85;2.28;;;;;;;17.26;65.33;96429.06;5035296;28;20499;-67
2022/08/11 03:10:22;;;;;;;5.10;2.20;;;;;;;17.30;65.17;96438.47;5035384;28;20049;-69
2022/08/11 03:18:37;;;;;;;;;;;;;;;17.24;65.08;96450.31;5035777;28;20472;-66
2022/08/11 03:21:14;;;;;;;5.22;2.08;;;;;;;17.19;65.04;96447.13;5035127;28;19920;-68
2022/08/11 03:23:48;;;;;;;6.68;2.08;;;;;;;17.18;65.06;96456.00;5035228;28;20042;-66
2022/08/11 03:26:26;;;;;;;2.75;2.05;;;;;;;17.15;64.98;96446.47;5035098;28;20080;-68
2022/08/11 03:29:06;;;;;;;2.50;2.05;;;;;;;17.19;64.70;96455.06;5035150;28;20045;-69
2022/08/11 03:31:37;;;;;;;2.63;2.20;;;;;;;17.16;65.15;96452.63;5035135;28;20049;-68
2022/08/11 03:34:11;;;;;;;4.15;2.30;;;;;;;17.23;64.72;96456.53;5034724;28;20124;-65
2022/08/11 03:40:13;;;;;;;3.30;2.03;;;;;;;17.28;64.33;96457.06;5033968;28;20453;-69
2022/08/11 03:42:54;;;;;;;2.97;2.58;;;;;;;17.28;64.22;96456.25;5034747;28;20053;-70
2022/08/11 03:45:28;;;;;;;5.22;1.80;;;;;;;17.29;63.67;96465.84;5034736;28;20077;-65
2022/08/11 03:48:10;;;;;;;2.33;2.10;;;;;;;17.21;63.94;96454.94;5034627;28;20136;-66
2022/08/11 03:51:00;;;;;;;4.80;2.05;;;;;;;17.20;63.86;96459.41;5034657;28;20053;-65
2022/08/11 03:53:55;;;;;;;2.47;1.95;;;;;;;17.27;63.69;96460.69;5034563;28;20124;-69
2022/08/11 03:56:53;;;;;;;2.78;1.65;;;;;;;17.34;62.75;96458.44;5034623;28;20389;-69
2022/08/11 03:59:44;;;;;;;3.72;1.73;;;;;;;17.39;62.85;96459.00;5034331;28;20506;-65
2022/08/11 04:02:45;;;;;;;1.77;1.67;;;;;;;17.75;61.21;96463.69;5034335;28;20092;-69
2022/08/11 04:05:50;;;;;;;2.42;1.48;;;;;;;18.14;59.86;96456.63;4994011;28;20041;-66
2022/08/11 04:08:47;;;;;;;1.67;1.48;;;;;;;18.58;58.33;96469.47;5014474;28;20056;-67
2022/08/11 04:11:37;;;;;;;2.03;1.50;;;;;;;18.87;57.39;96470.97;5014460;28;20077;-70
2022/08/11 04:18:13;;;;;;;1.60;1.50;;;;;;;19.68;55.31;96470.34;5014364;28;20278;-70
2022/08/11 04:21:20;;;;;;;1.50;1.40;;;;;;;20.08;53.28;96483.22;5014221;28;20116;-64
2022/08/11 04:24:14;;;;;;;1.88;1.35;;;;;;;20.43;52.35;96477.91;4986766;28;20488;-68
2022/08/11 04:27:20;;;;;;;1.98;1.42;;;;;;;20.50;52.53;96480.94;5014033;28;20457;-68
2022/08/11 04:30:03;;;;;;;1.38;1.27;;;;;;;20.47;52.39;96483.84;4949859;28;20080;-71
2022/08/11 04:33:12;;;;;;;5.05;1.63;;;;;;;20.90;50.59;96488.41;5014088;28;20049;-67
2022/08/11 04:35:45;;;;;;;3.80;1.08;;;;;;;21.32;50.50;96489.47;5004658;28;20050;-64
2022/08/11 04:38:58;;;;;;;2.22;1.10;;;;;;;21.73;48.90;96486.13;5013991;28;20042;-66
2022/08/11 04:45:27;;;;;;;1.50;1.15;;;;;;;22.03;47.84;96490.69;5014075;28;20400;-68
2022/08/11 05:03:15;;;;;;;3.85;1.10;;;;;;;21.15;49.15;96498.81;5013868;28;19967;-69
2022/08/11 05:06:04;;;;;;;4.55;1.20;;;;;;;21.34;48.82;96492.81;5016346;28;20144;-64
2022/08/11 05:09:05;;;;;;;1.67;1.13;;;;;;;21.64;48.81;96498.41;5033283;28;20450;-71
2022/08/11 05:12:06;;;;;;;2.17;1.23;;;;;;;22.00;48.11;96482.13;5033320;28;20045;-67
2022/08/11 05:37:14;;;;;;;1.85;1.30;;;;;;;22.54;46.46;96481.91;5033026;28;20144;-72
2022/08/11 05:56:35;;;;;;;1.77;1.33;;;;;;;22.76;46.01;96480.91;5036879;28;20418;-66
2022/08/11 05:59:03;;;;;;;1.60;1.43;;;;;;;22.67;46.01;96487.06;5036861;28;20045;-69
2022/08/11 06:01:34;;;;;;;1.70;1.50;;;;;;;22.75;46.54;96483.72;5036500;28;20049;-71
2022/08/11 06:04:15;;;;;;;;;;;;;;;22.77;46.47;96495.94;5037017;28;20061;-69
2022/08/11 06:06:51;;;;;;;1.33;1.23;;;;;;;22.83;45.69;96489.19;5036356;28;19975;-70
2022/08/11 06:09:29;;;;;;;1.58;1.48;;;;;;;22.90;45.00;96486.84;5036510;28;20045;-67
2022/08/11 06:12:00;;;;;;;1.42;1.30;;;;;;;22.97;44.68;96490.66;5036505;28;20212;-67
2022/08/11 06:14:28;;;;;;;3.55;1.58;;;;;;;22.95;44.63;96490.78;5036414;28;20510;-67
2022/08/11 06:17:00;;;;;;;2.83;1.20;;;;;;;22.93;45.11;96482.06;5036406;28;20442;-65
2022/08/11 06:19:35;;;;;;;1.80;1.70;;;;;;;22.87;46.08;96481.78;5036375;28;20053;-67
2022/08/11 06:22:09;;;;;;;1.83;1.55;;;;;;;22.85;46.36;96481.91;5036119;28;20092;-73
2022/08/11 06:24:41;;;;;;;2.20;1.58;;;;;;;22.92;45.83;96483.06;5036296;28;20050;-69
2022/08/11 06:27:09;;;;;;;4.88;1.90;;;;;;;23.06;44.96;96479.13;5036218;28;20077;-71
2022/08/11 06:29:40;;;;;;;2.35;1.58;;;;;;;23.09;44.45;96476.19;5036254;28;20057;-65
2022/08/11 06:32:14;;;;;;;1.55;1.42;;;;;;;23.24;44.96;96481.13;5036071;28;20053;-68
2022/08/11 06:35:13;;;;;;;2.60;1.60;;;;;;;23.48;44.19;96474.56;5035946;28;20053;-66
2022/08/11 06:37:53;;;;;;;5.72;1.35;;;;;;;23.75;43.21;96470.28;5036223;28;20577;-64
2022/08/11 06:40:31;;;;;;;2.07;1.70;;;;;;;24.05;43.44;96478.25;5036145;28;20077;-67
2022/08/11 06:43:07;;;;;;;2.95;1.30;;;;;;;24.02;43.54;96479.38;5036049;28;20129;-65
2022/08/11 06:45:46;;;;;;;1.85;1.58;;;;;;;24.44;42.78;96478.13;5035794;28;20057;-67
2022/08/11 06:48:20;;;;;;;1.58;1.40;;;;;;;25.05;41.37;96482.22;5035702;28;20072;-69
2022/08/11 06:53:39;;;;;;;2.78;1.38;;;;;;;26.31;39.38;96480.38;5035886;28;20470;-66
2022/08/11 07:01:46;;;;;;;2.67;1.65;;;;;;;26.55;38.33;96486.03;5035687;28;20139;-69
2022/08/11 07:04:21;;;;;;;1.48;1.38;;;;;;;26.67;38.17;96489.28;5035629;28;20128;-67
2022/08/11 07:28:57;;;;;;;3.10;1.60;;;;;;;29.94;32.02;96490.06;5032906;28;20419;-71
2022/08/11 07:31:31;;;;;;;1.75;1.40;;;;;;;30.13;30.88;96488.72;5035041;28;20056;-71
2022/08/11 07:34:10;;;;;;;1.88;1.60;;;;;;;30.04;30.68;96494.38;5034955;28;20059;-65
2022/08/11 07:36:41;;;;;;;1.35;1.25;;;;;;;29.68;31.54;96494.03;5034868;28;20049;-65
2022/08/11 07:39:19;;;;;;;3.88;1.33;;;;;;;29.64;31.44;96484.59;5034957;28;20049;-66
2022/08/11 07:41:48;;;;;;;2.92;1.38;;;;;;;29.17;32.24;96484.59;5034748;28;20057;-67
2022/08/11 07:44:17;;;;;;;3.03;1.50;;;;;;;28.79;33.71;96484.41;5034729;28;20381;-66
2022/08/11 07:52:32;;;;;;;2.97;1.50;;;;;;;27.92;34.64;96484.97;5034761;28;20060;-69
2022/08/11 07:55:04;;;;;;;1.50;1.40;;;;;;;28.21;35.01;96483.59;5034545;28;20045;-65
2022/08/11 08:19:46;;;;;;;1.23;1.13;;;;;;;27.69;34.64;96482.97;5034091;28;20102;-66
2022/08/11 08:22:18;;;;;;;1.60;1.40;;;;;;;27.67;34.77;96476.09;5033960;28;20053;-67
2022/08/11 08:24:45;;;;;;;2.20;1.13;;;;;;;27.31;35.41;96477.22;5034081;28;20129;-64
2022/08/11 08:27:16;;;;;;;1.30;1.20;;;;;;;27.19;36.43;96484.75;5033982;28;20050;-68
2022/08/11 08:32:33;;;;;;;1.70;1.23;;;;;;;27.67;35.21;96476.94;5033984;28;20524;-68
2022/08/11 08:35:03;;;;;;;1.40;1.30;;;;;;;27.90;34.87;96470.03;5033817;28;20049;-69
2022/08/11 08:37:31;;;;;;;1.48;1.13;;;;;;;27.94;35.02;96480.28;5033963;28;20057;-64
2022/08/11 08:39:59;;;;;;;1.60;1.50;;;;;;;27.93;34.29;96489.34;5033756;28;20450;-67
2022/08/11 08:42:29;;;;;;;1.45;1.35;;;;;;;28.10;34.71;96465.97;5033604;28;20053;-68
2022/08/11 08:45:03;;;;;;;1.50;1.30;;;;;;;28.52;33.80;96468.56;5033521;28;20052;-65
2022/08/11 08:47:35;;;;;;;2.20;1.30;;;;;;;28.57;33.78;96473.41;5033627;28;20042;-68
2022/08/11 08:50:06;;;;;;;3.13;1.50;;;;;;;28.68;33.54;96464.13;5033657;28;20049;-68
2022/08/11 08:52:39;;;;;;;2.58;1.40;;;;;;;28.80;33.86;96475.34;5033631;28;20045;-65
2022/08/11 08:55:08;;;;;;;1.70;1.35;;;;;;;28.49;33.96;96474.28;5033551;28;20088;-65
2022/08/11 08:57:39;;;;;;;1.35;1.20;;;;;;;28.12;34.81;96472.00;5033385;28;20099;-65
2022/08/11 09:00:08;;;;;;;1.40;1.20;;;;;;;28.05;34.14;96467.50;5033339;28;20046;-65
2022/08/11 09:02:37;;;;;;;1.77;1.30;;;;;;;27.89;35.25;96469.19;5033333;28;20057;-65
2022/08/11 09:05:07;;;;;;;1.75;1.25;;;;;;;28.24;34.24;96455.53;5033209;28;20065;-68
2022/08/11 09:07:35;;;;;;;2.50;1.08;;;;;;;28.19;34.08;96463.25;5033209;28;20131;-69
2022/08/11 09:10:04;;;;;;;3.78;1.50;;;;;;;28.56;33.62;96469.06;5033167;28;20045;-64
2022/08/11 09:12:34;;;;;;;1.40;1.30;;;;;;;28.59;33.58;96463.34;5032403;28;20492;-66
2022/08/11 09:15:06;;;;;;;1.10;1.10;;;;;;;28.07;33.67;96462.78;5033259;28;20048;-64
2022/08/11 09:17:36;;;;;;;6.45;2.10;;;;;;;28.08;34.88;96462.59;5033086;28;20081;-67
2022/08/11 09:20:08;;;;;;;2.35;1.40;;;;;;;28.49;34.27;96448.25;5033158;28;20045;-63
2022/08/11 09:28:13;;;;;;;1.48;1.38;;;;;;;28.13;35.03;96440.59;4993207;28;20057;-65
2022/08/11 09:30:44;;;;;;;2.90;1.13;;;;;;;28.06;34.36;96440.47;5032956;28;20053;-66
2022/08/11 09:33:15;;;;;;;1.70;1.25;;;;;;;28.14;34.07;96439.56;5032906;28;20050;-63
2022/08/11 09:35:46;;;;;;;1.58;1.48;;;;;;;27.97;34.28;96439.63;5032902;28;20091;-64
2022/08/11 09:41:05;;;;;;;1.83;1.60;;;;;;;27.87;34.46;96460.44;5032856;28;20510;-68
2022/08/11 09:46:25;;;;;;;1.45;1.35;;;;;;;27.98;33.98;96443.13;5033035;28;20140;-66
2022/08/11 09:48:55;;;;;;;1.42;1.30;;;;;;;28.13;34.77;96437.91;5032756;28;20490;-66
2022/08/11 09:51:24;;;;;;;2.28;1.45;;;;;;;28.59;34.48;96444.50;5032833;28;20049;-68
2022/08/11 09:53:53;;;;;;;3.50;1.50;;;;;;;28.79;33.66;96438.66;5032744;28;20099;-64
2022/08/11 09:59:13;;;;;;;2.50;1.35;;;;;;;28.58;33.75;96432.91;5032756;28;20107;-65
2022/08/11 10:01:51;;;;;;;4.95;1.58;;;;;;;28.81;34.06;96431.28;5032638;28;20491;-67
2022/08/11 10:04:23;;;;;;;2.63;1.60;;;;;;;28.77;32.94;96433.47;5032733;28;20077;-64
2022/08/11 10:07:01;;;;;;;2.03;1.70;;;;;;;28.50;33.57;96432.91;5032401;28;20045;-65
2022/08/11 10:09:37;;;;;;;1.30;1.20;;;;;;;28.59;33.60;96423.81;5032677;28;20045;-66
2022/08/11 10:12:09;;;;;;;1.80;1.20;;;;;;;28.49;33.20;96407.06;5032702;28;20049;-70
2022/08/11 10:17:32;;;;;;;2.90;1.48;;;;;;;28.39;34.40;96415.34;5032796;28;20056;-66
2022/08/11 10:20:06;;;;;;;1.60;1.40;;;;;;;28.28;33.94;96429.97;5032594;28;20133;-65
2022/08/11 10:28:09;;;;;;;1.40;1.30;;;;;;;28.47;33.91;96419.84;5036357;28;20061;-62
2022/08/11 10:36:09;;;;;;;1.77;1.50;;;;;;;28.84;32.70;96420.16;5036167;28;20048;-67
2022/08/11 10:38:37;;;;;;;1.98;1.50;;;;;;;29.04;32.02;96425.13;5035945;28;20136;-68
2022/08/11 10:43:52;;;;;;;1.90;1.70;;;;;;;28.84;33.07;96420.16;5036036;28;20064;-68
2022/08/11 10:49:08;;;;;;;1.85;1.48;;;;;;;28.65;32.91;96405.31;5035983;28;20586;-66
2022/08/11 10:59:53;;;;;;;3.58;1.48;;;;;;;28.70;33.36;96410.97;5035819;28;20583;-67
2022/08/11 11:02:22;;;;;;;4.63;1.30;;;;;;;28.79;32.92;96418.00;5035397;28;20080;-63
2022/08/11 11:05:08;;;;;;;2.20;1.50;;;;;;;28.94;33.21;96407.34;5035551;28;20088;-67
2022/08/11 11:07:51;;;;;;;1.75;1.63;;;;;;;28.97;32.73;96395.38;5035426;28;20514;-67
2022/08/11 11:10:20;;;;;;;3.17;1.60;;;;;;;29.15;32.25;96397.78;5035418;28;20049;-64
2022/08/11 11:18:32;;;;;;;1.67;1.35;;;;;;;28.67;33.27;96387.13;5035331;28;20061;-64
2022/08/11 11:21:05;;;;;;;1.75;1.65;;;;;;;28.71;33.27;96375.81;5035181;28;20041;-70
2022/08/11 11:23:41;;;;;;;1.67;1.35;;;;;;;28.75;33.07;96385.22;5035122;28;20495;-67
2022/08/11 11:26:38;;;;;;;3.22;1.40;;;;;;;28.94;33.15;96387.66;5035274;28;20092;-65
2022/08/11 11:29:31;;;;;;;1.50;1.40;;;;;;;28.94;33.28;96390.34;5033936;28;20051;-65
2022/08/11 11:32:18;;;;;;;4.70;1.60;;;;;;;29.08;32.74;96381.50;5035203;28;20111;-67
2022/08/11 11:35:17;;;;;;;1.58;1.30;;;;;;;28.70;33.16;96384.06;5034502;28;20045;-64
2022/08/11 11:37:49;;;;;;;2.13;1.40;;;;;;;28.48;33.35;96384.69;5034927;28;20092;-67
2022/08/11 11:40:21;;;;;;;3.58;1.55;;;;;;;28.46;33.46;96394.81;5034967;28;20041;-64
2022/08/11 11:42:50;;;;;;;1.48;1.20;;;;;;;28.48;34.07;96378.50;5034721;28;20054;-64
2022/08/11 11:45:20;;;;;;;1.42;1.20;;;;;;;28.50;33.90;96382.66;5034945;28;20049;-67
2022/08/11 11:47:51;;;;;;;1.33;1.23;;;;;;;28.71;33.34;96389.28;5034808;28;20099;-64
2022/08/11 11:50:24;;;;;;;6.53;1.50;;;;;;;28.61;33.05;96385.97;5034832;28;20071;-63
2022/08/11 11:52:54;;;;;;;3.65;1.50;;;;;;;28.35;33.81;96387.13;5034695;28;20418;-66
2022/08/11 11:55:24;;;;;;;1.60;1.50;;;;;;;28.28;33.73;96378.03;5034776;28;20045;-64
2022/08/11 12:03:24;;;;;;;1.50;1.40;;;;;;;28.78;33.76;96385.88;5034399;28;20122;-65
2022/08/11 12:05:52;;;;;;;2.72;1.80;;;;;;;28.74;33.42;96385.38;5034239;28;20103;-68
2022/08/11 12:08:24;;;;;;;1.83;1.33;;;;;;;28.78;33.02;96378.66;5034480;28;20474;-63
2022/08/11 12:13:39;;;;;;;1.90;1.35;;;;;;;28.74;33.36;96380.00;5034307;28;20492;-67
2022/08/11 12:13:44;;;;;;;3.50;1.75;;;;;;;28.70;33.00;96379.53;5034258;28;20049;-68
2022/08/11 12:16:13;;;;;;;4.72;1.90;;;;;;;28.86;32.98;96385.81;5034282;28;20469;-64
2022/08/11 12:18:43;;;;;;;4.85;1.50;;;;;;;28.80;33.27;96382.00;5034234;28;20100;-65
2022/08/11 12:21:11;;;;;;;3.25;1.50;;;;;;;28.81;33.23;96377.47;5034077;28;20053;-64
2022/08/11 12:29:26;;;;;;;1.80;1.60;;;;;;;28.51;33.07;96386.22;5033121;28;20053;-66
2022/08/11 12:31:57;;;;;;;2.50;1.52;;;;;;;28.17;33.89;96371.22;5033812;28;20491;-67
2022/08/11 12:34:27;;;;;;;1.88;1.38;;;;;;;27.88;34.33;96373.47;5033813;28;20132;-66
2022/08/11 12:36:58;;;;;;;2.55;1.67;;;;;;;27.77;34.73;96369.31;5033715;28;20049;-64
2022/08/11 12:45:30;;;;;;;1.83;1.52;;;;;;;28.06;34.40;96364.34;4975579;28;20076;-69
2022/08/11 12:53:45;;;;;;;2.95;1.55;;;;;;;27.91;33.96;96357.03;5033635;28;20095;-63
2022/08/11 13:07:16;;;;;;;4.25;1.70;;;;;;;27.46;35.06;96360.13;5033298;28;20064;-67
2022/08/11 13:09:46;;;;;;;2.25;1.60;;;;;;;27.59;34.48;96364.94;5033373;28;20137;-65
2022/08/11 13:15:02;;;;;;;1.42;1.33;;;;;;;27.86;34.27;96348.63;5033324;28;20572;-65
2022/08/11 13:17:31;;;;;;;2.80;1.80;;;;;;;28.03;34.00;96362.00;5033165;28;20053;-65
2022/08/11 13:20:00;;;;;;;1.70;1.45;;;;;;;28.08;34.15;96363.16;5033119;28;20174;-66
2022/08/11 13:22:27;;;;;;;1.60;1.50;;;;;;;27.91;33.21;96365.09;5032982;28;20050;-70
2022/08/11 13:24:57;;;;;;;4.00;1.52;;;;;;;27.64;34.08;96353.69;5033143;28;20056;-63
2022/08/11 13:27:27;;;;;;;2.20;1.40;;;;;;;27.40;34.50;96354.56;5033087;28;20422;-66
2022/08/11 13:31:09;;;;;;;1.38;1.27;;;;;;;27.45;34.89;96369.16;5033105;28;20760;-62
2022/08/11 13:32:45;;;;;;;2.53;1.20;;;;;;;27.64;34.46;96356.38;5032896;28;20045;-65
2022/08/11 13:35:14;;;;;;;4.18;1.80;;;;;;;27.77;34.26;96353.19;5032953;28;20052;-64
2022/08/11 13:37:45;;;;;;;2.75;1.55;;;;;;;27.73;34.25;96355.41;5032944;28;20049;-68
2022/08/11 13:40:14;;;;;;;1.85;1.48;;;;;;;27.70;34.09;96339.63;5032830;28;20052;-63
2022/08/11 13:42:44;;;;;;;3.10;1.63;;;;;;;27.74;34.63;96357.06;5032819;28;20050;-69
2022/08/11 13:45:12;;;;;;;;;;;;;;;27.68;34.46;96347.00;5033183;28;20407;-65
2022/08/11 13:47:41;;;;;;;1.60;1.50;;;;;;;27.63;34.60;96352.84;5032989;28;19921;-66
2022/08/11 13:50:12;;;;;;;2.38;1.70;;;;;;;27.68;34.67;96349.69;5032967;28;20049;-68
2022/08/11 13:52:41;;;;;;;2.65;1.45;;;;;;;27.73;34.17;96350.03;5032795;28;20503;-65
2022/08/11 13:55:20;;;;;;;1.50;1.40;;;;;;;27.72;34.00;96342.13;5032715;28;20050;-66
2022/08/11 13:57:52;;;;;;;1.85;1.58;;;;;;;27.55;34.27;96360.94;5032629;28;20080;-65
2022/08/11 14:00:21;;;;;;;4.85;1.75;;;;;;;27.67;34.35;96347.16;5036348;28;20049;-63
2022/08/11 14:02:51;;;;;;;1.83;1.73;;;;;;;27.55;35.07;96343.97;5036663;28;20053;-65
2022/08/11 14:05:25;;;;;;;3.92;1.33;;;;;;;27.71;34.46;96343.97;5036711;28;20384;-66
2022/08/11 14:07:55;;;;;;;1.88;1.35;;;;;;;27.73;34.66;96341.13;5036726;28;20057;-67
2022/08/11 14:10:27;;;;;;;1.40;1.30;;;;;;;27.78;34.33;96345.97;5036608;28;20473;-67
2022/08/11 14:15:50;;;;;;;2.67;1.30;;;;;;;27.83;33.81;96348.97;5036477;28;20049;-69
2022/08/11 14:18:20;;;;;;;4.32;1.45;;;;;;;27.84;33.52;96348.78;5036352;28;20565;-66
2022/08/11 14:23:40;;;;;;;2.50;1.30;;;;;;;27.93;33.87;96346.09;5036470;28;20060;-65
2022/08/11 14:26:26;;;;;;;2.35;1.30;;;;;;;27.75;33.53;96345.31;5036337;28;20052;-67
2022/08/11 14:29:01;;;;;;;2.45;1.38;;;;;;;27.71;34.02;96337.75;5036235;28;20081;-66
2022/08/11 14:31:30;;;;;;;3.80;1.70;;;;;;;27.54;33.61;96355.72;5036023;28;20569;-65
2022/08/11 14:34:02;;;;;;;1.50;1.40;;;;;;;27.37;33.87;96355.75;5036068;28;20046;-66
2022/08/11 14:36:32;;;;;;;2.08;1.50;;;;;;;27.31;34.63;96359.09;5036081;28;20041;-69
2022/08/11 14:39:03;;;;;;;2.00;1.55;;;;;;;27.32;34.56;96361.63;5035935;28;20050;-70
2022/08/11 14:47:05;;;;;;;1.38;1.27;;;;;;;27.14;34.64;96364.47;5035960;28;20459;-67
2022/08/11 14:49:34;;;;;;;2.60;1.70;;;;;;;27.15;34.79;96363.47;5035777;28;20046;-64
2022/08/11 14:52:04;;;;;;;2.75;1.75;;;;;;;27.07;34.86;96369.69;5035767;28;20349;-66
2022/08/11 14:57:18;;;;;;;2.45;1.30;;;;;;;26.99;34.36;96365.16;5035840;28;20427;-66
2022/08/11 14:59:49;;;;;;;2.65;1.63;;;;;;;27.07;34.84;96368.84;5035526;28;20052;-65
2022/08/11 15:05:05;;;;;;;2.83;1.73;;;;;;;27.13;34.42;96368.19;5035573;28;20060;-66
2022/08/11 15:07:34;;;;;;;1.40;1.30;;;;;;;27.22;34.24;96369.84;5035462;28;20045;-68
2022/08/11 15:10:05;;;;;;;4.13;1.35;;;;;;;27.12;34.40;96367.31;5034171;28;20132;-66
2022/08/11 15:12:33;;;;;;;1.80;1.70;;;;;;;26.96;35.15;96357.41;5035377;28;20050;-65
2022/08/11 15:17:52;;;;;;;5.18;1.67;;;;;;;27.01;34.44;96356.94;5035623;28;20498;-66
2022/08/11 15:25:55;;;;;;;2.13;1.33;;;;;;;26.82;34.31;96348.16;5035235;28;20187;-66
2022/08/11 15:45:46;;;;;;;1.45;1.30;;;;;;;26.61;35.12;96362.06;5034925;28;20057;-67
2022/08/11 15:48:04;;;;;;;2.00;1.48;;;;;;;26.37;36.44;96352.94;5034859;28;20052;-65
2022/08/11 15:50:34;;;;;;;3.88;1.50;;;;;;;26.37;36.03;96359.13;5034797;28;20049;-67
2022/08/11 15:53:09;;;;;;;1.58;1.42;;;;;;;26.35;36.24;96362.97;5034868;28;20112;-65
2022/08/11 15:55:40;;;;;;;2.00;1.83;;;;;;;26.25;36.80;96365.78;5034464;28;20488;-67
2022/08/11 16:06:35;;;;;;;2.13;1.92;;;;;;;26.00;36.64;96368.31;5034494;28;20060;-66
2022/08/11 16:09:04;;;;;;;1.52;1.42;;;;;;;25.83;36.90;96359.38;5034485;28;20046;-66
2022/08/11 16:11:34;;;;;;;1.65;1.40;;;;;;;25.71;37.04;96358.81;5034424;28;20132;-68
2022/08/11 16:16:51;;;;;;;2.60;1.70;;;;;;;25.45;37.97;96359.63;5034365;28;20119;-70
2022/08/11 16:19:22;;;;;;;2.07;1.60;;;;;;;25.41;37.91;96363.59;5034241;28;20069;-66
2022/08/11 16:21:52;;;;;;;2.42;1.60;;;;;;;25.29;38.11;96355.84;5033854;28;20329;-65
2022/08/11 16:24:22;;;;;;;2.92;1.70;;;;;;;25.19;38.59;96355.91;5034026;28;20045;-66
2022/08/11 16:26:54;;;;;;;2.53;1.40;;;;;;;25.17;38.71;96360.59;5034089;28;20045;-63
2022/08/11 16:29:24;;;;;;;1.58;1.48;;;;;;;25.23;38.69;96359.94;5034046;28;20286;-65
2022/08/11 16:40:11;;;;;;;2.88;1.77;;;;;;;25.16;39.06;96372.28;5033919;28;20556;-66
2022/08/11 16:48:12;;;;;;;2.60;1.30;;;;;;;24.95;39.35;96377.97;5033834;28;20403;-67
2022/08/11 16:50:42;;;;;;;1.85;1.52;;;;;;;24.90;39.50;96375.75;5033569;28;20068;-64
2022/08/11 16:53:09;;;;;;;3.20;1.60;;;;;;;24.86;39.33;96385.00;5033729;28;20045;-67
2022/08/11 16:55:37;;;;;;;2.97;1.92;;;;;;;24.74;39.36;96384.41;5033914;28;20056;-63
2022/08/11 17:00:51;;;;;;;4.40;2.05;;;;;;;24.65;39.49;96398.69;5033591;28;20188;-65
2022/08/11 17:14:38;;;;;;;4.75;1.75;;;;;;;24.48;39.70;96404.69;5033404;28;20539;-65
2022/08/11 17:17:12;;;;;;;5.68;1.65;;;;;;;24.44;39.75;96403.28;5033294;28;20472;-65
2022/08/11 17:19:45;;;;;;;1.95;1.50;;;;;;;24.37;40.05;96404.88;5033392;28;20049;-66
2022/08/11 17:25:00;;;;;;;2.72;2.10;;;;;;;24.28;40.20;96411.13;5033194;28;20052;-67
2022/08/11 17:27:30;;;;;;;6.95;2.10;;;;;;;24.20;40.56;96407.34;5033111;28;20111;-67
2022/08/11 17:30:01;;;;;;;2.92;1.88;;;;;;;24.21;40.53;96410.88;5016015;28;20128;-64
2022/08/11 17:35:30;;;;;;;2.97;1.60;;;;;;;24.08;40.99;96412.00;5033044;28;20065;-66
2022/08/11 17:38:04;;;;;;;2.97;1.87;;;;;;;24.04;40.92;96409.78;5033181;28;20172;-65